sensor_id;sensor_type;location;lat;lon;timestamp;P1;durP1;ratioP1;P2;durP2;ratioP2
62543;SDS011;48597;49.030;1.822;2023-08-20T00:01:04;5.43;;;1.20;;
62543;SDS011;48597;49.030;1.822;2023-08-20T00:03:30;2.17;;;0.90;;
62543;SDS011;48597;49.030;1.822;2023-08-20T00:05:56;3.15;;;1.00;;
62543;SDS011;48597;49.030;1.822;2023-08-20T00:08:22;2.05;;;1.00;;
62543;SDS011;48597;49.030;1.822;2023-08-20T00:10:47;2.00;;;1.13;;
62543;SDS011;48597;49.030;1.822;2023-08-20T00:13:13;2.85;;;0.93;;
62543;SDS011;48597;49.030;1.822;2023-08-20T00:15:38;2.22;;;1.05;;
62543;SDS011;48597;49.030;1.822;2023-08-20T00:18:04;1.85;;;0.93;;
62543;SDS011;48597;49.030;1.822;2023-08-20T00:20:30;1.55;;;0.80;;
62543;SDS011;48597;49.030;1.822;2023-08-20T00:22:55;2.78;;;0.93;;
62543;SDS011;48597;49.030;1.822;2023-08-20T00:25:21;3.25;;;0.90;;
62543;SDS011;48597;49.030;1.822;2023-08-20T00:27:47;2.40;;;0.90;;
62543;SDS011;48597;49.030;1.822;2023-08-20T00:30:13;2.13;;;0.90;;
62543;SDS011;48597;49.030;1.822;2023-08-20T00:32:39;2.30;;;0.70;;
62543;SDS011;48597;49.030;1.822;2023-08-20T00:35:04;3.88;;;0.93;;
62543;SDS011;48597;49.030;1.822;2023-08-20T00:37:32;1.15;;;0.60;;
62543;SDS011;48597;49.030;1.822;2023-08-20T00:39:57;2.33;;;0.90;;
62543;SDS011;48597;49.030;1.822;2023-08-20T00:42:23;2.05;;;0.90;;
62543;SDS011;48597;49.030;1.822;2023-08-20T00:44:52;2.00;;;1.00;;
62543;SDS011;48597;49.030;1.822;2023-08-20T00:47:18;3.08;;;0.90;;
62543;SDS011;48597;49.030;1.822;2023-08-20T00:49:44;1.20;;;0.70;;
62543;SDS011;48597;49.030;1.822;2023-08-20T00:52:11;2.13;;;0.98;;
62543;SDS011;48597;49.030;1.822;2023-08-20T00:54:41;1.60;;;0.80;;
62543;SDS011;48597;49.030;1.822;2023-08-20T00:57:11;1.85;;;0.80;;
62543;SDS011;48597;49.030;1.822;2023-08-20T00:59:39;2.45;;;0.80;;
62543;SDS011;48597;49.030;1.822;2023-08-20T01:02:05;2.33;;;1.00;;
62543;SDS011;48597;49.030;1.822;2023-08-20T01:04:31;1.48;;;0.73;;
62543;SDS011;48597;49.030;1.822;2023-08-20T01:07:04;1.73;;;0.90;;
62543;SDS011;48597;49.030;1.822;2023-08-20T01:09:41;2.25;;;0.80;;
62543;SDS011;48597;49.030;1.822;2023-08-20T01:12:15;1.90;;;0.90;;
62543;SDS011;48597;49.030;1.822;2023-08-20T01:14:42;1.80;;;0.77;;
62543;SDS011;48597;49.030;1.822;2023-08-20T01:17:07;2.33;;;0.98;;
62543;SDS011;48597;49.030;1.822;2023-08-20T01:19:33;1.63;;;0.80;;
62543;SDS011;48597;49.030;1.822;2023-08-20T01:27:52;2.45;;;0.80;;
62543;SDS011;48597;49.030;1.822;2023-08-20T01:30:24;1.92;;;0.63;;
62543;SDS011;48597;49.030;1.822;2023-08-20T01:32:50;2.05;;;0.68;;
62543;SDS011;48597;49.030;1.822;2023-08-20T01:35:18;2.03;;;0.82;;
62543;SDS011;48597;49.030;1.822;2023-08-20T01:37:43;1.15;;;0.68;;
62543;SDS011;48597;49.030;1.822;2023-08-20T01:40:09;2.42;;;0.90;;
62543;SDS011;48597;49.030;1.822;2023-08-20T01:42:36;2.25;;;0.70;;
62543;SDS011;48597;49.030;1.822;2023-08-20T01:45:02;1.98;;;0.80;;
62543;SDS011;48597;49.030;1.822;2023-08-20T01:47:29;1.25;;;0.75;;
62543;SDS011;48597;49.030;1.822;2023-08-20T01:49:54;2.20;;;0.82;;
62543;SDS011;48597;49.030;1.822;2023-08-20T01:52:20;1.25;;;0.60;;
62543;SDS011;48597;49.030;1.822;2023-08-20T01:54:45;2.03;;;0.93;;
62543;SDS011;48597;49.030;1.822;2023-08-20T01:57:10;1.65;;;0.80;;
62543;SDS011;48597;49.030;1.822;2023-08-20T01:59:36;0.75;;;0.63;;
62543;SDS011;48597;49.030;1.822;2023-08-20T02:02:01;1.65;;;0.80;;
62543;SDS011;48597;49.030;1.822;2023-08-20T02:04:29;1.52;;;0.80;;
62543;SDS011;48597;49.030;1.822;2023-08-20T02:06:54;1.67;;;0.70;;
62543;SDS011;48597;49.030;1.822;2023-08-20T02:09:20;1.63;;;0.90;;
62543;SDS011;48597;49.030;1.822;2023-08-20T02:11:45;2.28;;;0.70;;
62543;SDS011;48597;49.030;1.822;2023-08-20T02:14:11;1.80;;;0.90;;
62543;SDS011;48597;49.030;1.822;2023-08-20T02:16:36;1.98;;;0.90;;
62543;SDS011;48597;49.030;1.822;2023-08-20T02:19:02;2.38;;;0.93;;
62543;SDS011;48597;49.030;1.822;2023-08-20T02:21:28;1.63;;;0.85;;
62543;SDS011;48597;49.030;1.822;2023-08-20T02:23:54;1.40;;;0.73;;
62543;SDS011;48597;49.030;1.822;2023-08-20T02:26:19;1.10;;;0.75;;
62543;SDS011;48597;49.030;1.822;2023-08-20T02:28:44;1.48;;;0.60;;
62543;SDS011;48597;49.030;1.822;2023-08-20T02:31:10;2.03;;;0.90;;
62543;SDS011;48597;49.030;1.822;2023-08-20T02:33:35;1.88;;;0.70;;
62543;SDS011;48597;49.030;1.822;2023-08-20T02:36:02;1.55;;;0.70;;
62543;SDS011;48597;49.030;1.822;2023-08-20T02:38:28;0.80;;;0.73;;
62543;SDS011;48597;49.030;1.822;2023-08-20T02:40:53;0.95;;;0.70;;
62543;SDS011;48597;49.030;1.822;2023-08-20T02:43:19;1.50;;;0.70;;
62543;SDS011;48597;49.030;1.822;2023-08-20T02:45:44;2.47;;;0.82;;
62543;SDS011;48597;49.030;1.822;2023-08-20T02:48:09;1.50;;;0.80;;
62543;SDS011;48597;49.030;1.822;2023-08-20T02:50:35;2.10;;;0.80;;
62543;SDS011;48597;49.030;1.822;2023-08-20T02:53:01;1.85;;;0.80;;
62543;SDS011;48597;49.030;1.822;2023-08-20T02:55:26;1.30;;;0.63;;
62543;SDS011;48597;49.030;1.822;2023-08-20T02:57:52;1.02;;;0.77;;
62543;SDS011;48597;49.030;1.822;2023-08-20T03:00:17;1.02;;;0.60;;
62543;SDS011;48597;49.030;1.822;2023-08-20T03:02:42;1.50;;;0.65;;
62543;SDS011;48597;49.030;1.822;2023-08-20T03:05:09;1.83;;;0.70;;
62543;SDS011;48597;49.030;1.822;2023-08-20T03:07:35;1.88;;;0.60;;
62543;SDS011;48597;49.030;1.822;2023-08-20T03:10:00;1.50;;;0.60;;
62543;SDS011;48597;49.030;1.822;2023-08-20T03:12:25;1.63;;;0.70;;
62543;SDS011;48597;49.030;1.822;2023-08-20T03:14:51;0.60;;;0.60;;
62543;SDS011;48597;49.030;1.822;2023-08-20T03:17:16;1.38;;;0.75;;
62543;SDS011;48597;49.030;1.822;2023-08-20T03:19:53;1.98;;;0.88;;
62543;SDS011;48597;49.030;1.822;2023-08-20T03:22:21;1.45;;;0.57;;
62543;SDS011;48597;49.030;1.822;2023-08-20T03:24:47;1.20;;;0.90;;
62543;SDS011;48597;49.030;1.822;2023-08-20T03:27:12;1.17;;;0.68;;
62543;SDS011;48597;49.030;1.822;2023-08-20T03:29:37;1.92;;;0.80;;
62543;SDS011;48597;49.030;1.822;2023-08-20T03:32:03;1.23;;;0.60;;
62543;SDS011;48597;49.030;1.822;2023-08-20T03:34:28;1.02;;;0.60;;
62543;SDS011;48597;49.030;1.822;2023-08-20T03:36:54;1.63;;;0.70;;
62543;SDS011;48597;49.030;1.822;2023-08-20T03:39:19;2.35;;;0.60;;
62543;SDS011;48597;49.030;1.822;2023-08-20T03:41:45;1.33;;;0.68;;
62543;SDS011;48597;49.030;1.822;2023-08-20T03:44:10;1.23;;;0.68;;
62543;SDS011;48597;49.030;1.822;2023-08-20T03:46:35;0.52;;;0.52;;
62543;SDS011;48597;49.030;1.822;2023-08-20T03:49:01;1.33;;;0.80;;
62543;SDS011;48597;49.030;1.822;2023-08-20T03:51:26;1.85;;;0.73;;
62543;SDS011;48597;49.030;1.822;2023-08-20T03:53:51;0.85;;;0.60;;
62543;SDS011;48597;49.030;1.822;2023-08-20T03:56:17;1.20;;;0.60;;
62543;SDS011;48597;49.030;1.822;2023-08-20T03:58:42;1.15;;;0.70;;
62543;SDS011;48597;49.030;1.822;2023-08-20T04:01:07;1.27;;;0.70;;
62543;SDS011;48597;49.030;1.822;2023-08-20T04:03:33;1.27;;;0.77;;
62543;SDS011;48597;49.030;1.822;2023-08-20T04:05:58;1.77;;;0.80;;
62543;SDS011;48597;49.030;1.822;2023-08-20T04:08:23;0.80;;;0.70;;
62543;SDS011;48597;49.030;1.822;2023-08-20T04:10:49;0.90;;;0.68;;
62543;SDS011;48597;49.030;1.822;2023-08-20T04:13:14;1.70;;;0.70;;
62543;SDS011;48597;49.030;1.822;2023-08-20T04:15:41;0.55;;;0.50;;
62543;SDS011;48597;49.030;1.822;2023-08-20T04:18:06;1.33;;;0.70;;
62543;SDS011;48597;49.030;1.822;2023-08-20T04:20:32;1.35;;;0.70;;
62543;SDS011;48597;49.030;1.822;2023-08-20T04:22:58;1.90;;;0.65;;
62543;SDS011;48597;49.030;1.822;2023-08-20T04:25:23;1.60;;;0.90;;
62543;SDS011;48597;49.030;1.822;2023-08-20T04:27:48;1.23;;;0.77;;
62543;SDS011;48597;49.030;1.822;2023-08-20T04:30:14;1.42;;;0.60;;
62543;SDS011;48597;49.030;1.822;2023-08-20T04:32:39;1.45;;;0.70;;
62543;SDS011;48597;49.030;1.822;2023-08-20T04:35:05;1.27;;;0.75;;
62543;SDS011;48597;49.030;1.822;2023-08-20T04:37:31;1.15;;;0.60;;
62543;SDS011;48597;49.030;1.822;2023-08-20T04:39:56;1.90;;;0.70;;
62543;SDS011;48597;49.030;1.822;2023-08-20T04:42:22;1.27;;;0.60;;
62543;SDS011;48597;49.030;1.822;2023-08-20T04:44:47;1.30;;;0.60;;
62543;SDS011;48597;49.030;1.822;2023-08-20T04:47:12;2.33;;;0.90;;
62543;SDS011;48597;49.030;1.822;2023-08-20T04:49:38;0.73;;;0.60;;
62543;SDS011;48597;49.030;1.822;2023-08-20T04:52:04;0.60;;;0.60;;
62543;SDS011;48597;49.030;1.822;2023-08-20T04:54:29;2.22;;;0.90;;
62543;SDS011;48597;49.030;1.822;2023-08-20T04:56:55;0.82;;;0.68;;
62543;SDS011;48597;49.030;1.822;2023-08-20T04:59:20;1.20;;;0.77;;
62543;SDS011;48597;49.030;1.822;2023-08-20T05:01:46;1.15;;;0.80;;
62543;SDS011;48597;49.030;1.822;2023-08-20T05:04:11;1.33;;;0.70;;
62543;SDS011;48597;49.030;1.822;2023-08-20T05:06:37;1.33;;;0.70;;
62543;SDS011;48597;49.030;1.822;2023-08-20T05:09:02;1.95;;;0.63;;
62543;SDS011;48597;49.030;1.822;2023-08-20T05:11:28;0.82;;;0.50;;
62543;SDS011;48597;49.030;1.822;2023-08-20T05:13:56;1.88;;;0.90;;
62543;SDS011;48597;49.030;1.822;2023-08-20T05:16:22;1.85;;;0.70;;
62543;SDS011;48597;49.030;1.822;2023-08-20T05:18:48;1.35;;;0.60;;
62543;SDS011;48597;49.030;1.822;2023-08-20T05:21:13;1.63;;;0.70;;
62543;SDS011;48597;49.030;1.822;2023-08-20T05:23:39;2.03;;;0.80;;
62543;SDS011;48597;49.030;1.822;2023-08-20T05:26:06;1.20;;;0.70;;
62543;SDS011;48597;49.030;1.822;2023-08-20T05:28:32;1.77;;;0.85;;
62543;SDS011;48597;49.030;1.822;2023-08-20T05:30:58;1.50;;;0.85;;
62543;SDS011;48597;49.030;1.822;2023-08-20T05:33:24;1.25;;;0.73;;
62543;SDS011;48597;49.030;1.822;2023-08-20T05:35:49;1.10;;;0.65;;
62543;SDS011;48597;49.030;1.822;2023-08-20T05:38:15;1.30;;;0.70;;
62543;SDS011;48597;49.030;1.822;2023-08-20T05:40:41;1.50;;;0.77;;
62543;SDS011;48597;49.030;1.822;2023-08-20T05:43:07;1.50;;;0.80;;
62543;SDS011;48597;49.030;1.822;2023-08-20T05:45:32;2.05;;;0.98;;
62543;SDS011;48597;49.030;1.822;2023-08-20T05:47:58;1.50;;;0.73;;
62543;SDS011;48597;49.030;1.822;2023-08-20T05:50:23;1.02;;;0.80;;
62543;SDS011;48597;49.030;1.822;2023-08-20T05:52:48;1.02;;;0.70;;
62543;SDS011;48597;49.030;1.822;2023-08-20T05:55:14;1.67;;;0.60;;
62543;SDS011;48597;49.030;1.822;2023-08-20T05:57:40;1.75;;;0.70;;
62543;SDS011;48597;49.030;1.822;2023-08-20T06:00:07;1.50;;;0.70;;
62543;SDS011;48597;49.030;1.822;2023-08-20T06:02:33;1.95;;;0.75;;
62543;SDS011;48597;49.030;1.822;2023-08-20T06:04:58;2.28;;;1.00;;
62543;SDS011;48597;49.030;1.822;2023-08-20T06:07:24;1.38;;;0.70;;
62543;SDS011;48597;49.030;1.822;2023-08-20T06:09:49;1.65;;;0.70;;
62543;SDS011;48597;49.030;1.822;2023-08-20T06:12:15;1.08;;;0.70;;
62543;SDS011;48597;49.030;1.822;2023-08-20T06:14:43;1.90;;;0.90;;
62543;SDS011;48597;49.030;1.822;2023-08-20T06:17:09;1.02;;;0.60;;
62543;SDS011;48597;49.030;1.822;2023-08-20T06:19:34;1.38;;;0.70;;
62543;SDS011;48597;49.030;1.822;2023-08-20T06:21:59;1.50;;;0.82;;
62543;SDS011;48597;49.030;1.822;2023-08-20T06:24:25;1.33;;;0.60;;
62543;SDS011;48597;49.030;1.822;2023-08-20T06:26:51;1.02;;;0.70;;
62543;SDS011;48597;49.030;1.822;2023-08-20T06:29:17;1.27;;;0.82;;
62543;SDS011;48597;49.030;1.822;2023-08-20T06:31:43;1.85;;;0.70;;
62543;SDS011;48597;49.030;1.822;2023-08-20T06:34:08;0.70;;;0.70;;
62543;SDS011;48597;49.030;1.822;2023-08-20T06:36:34;1.35;;;0.80;;
62543;SDS011;48597;49.030;1.822;2023-08-20T06:39:00;1.83;;;0.80;;
62543;SDS011;48597;49.030;1.822;2023-08-20T06:41:25;2.53;;;1.00;;
62543;SDS011;48597;49.030;1.822;2023-08-20T06:43:51;1.17;;;0.80;;
62543;SDS011;48597;49.030;1.822;2023-08-20T06:46:16;1.48;;;0.80;;
62543;SDS011;48597;49.030;1.822;2023-08-20T06:48:41;1.80;;;0.70;;
62543;SDS011;48597;49.030;1.822;2023-08-20T06:51:18;1.40;;;0.70;;
62543;SDS011;48597;49.030;1.822;2023-08-20T06:53:45;0.98;;;0.70;;
62543;SDS011;48597;49.030;1.822;2023-08-20T06:56:10;1.67;;;1.00;;
62543;SDS011;48597;49.030;1.822;2023-08-20T06:58:37;0.70;;;0.70;;
62543;SDS011;48597;49.030;1.822;2023-08-20T07:01:04;1.48;;;0.63;;
62543;SDS011;48597;49.030;1.822;2023-08-20T07:03:40;0.93;;;0.65;;
62543;SDS011;48597;49.030;1.822;2023-08-20T07:06:06;1.42;;;0.80;;
62543;SDS011;48597;49.030;1.822;2023-08-20T07:08:39;1.77;;;0.80;;
62543;SDS011;48597;49.030;1.822;2023-08-20T07:11:05;1.00;;;0.70;;
62543;SDS011;48597;49.030;1.822;2023-08-20T07:13:31;0.63;;;0.60;;
62543;SDS011;48597;49.030;1.822;2023-08-20T07:15:56;0.75;;;0.52;;
62543;SDS011;48597;49.030;1.822;2023-08-20T07:18:22;1.92;;;0.82;;
62543;SDS011;48597;49.030;1.822;2023-08-20T07:20:47;1.75;;;0.80;;
62543;SDS011;48597;49.030;1.822;2023-08-20T07:23:13;1.50;;;0.90;;
62543;SDS011;48597;49.030;1.822;2023-08-20T07:25:39;1.63;;;0.70;;
62543;SDS011;48597;49.030;1.822;2023-08-20T07:28:06;1.70;;;0.80;;
62543;SDS011;48597;49.030;1.822;2023-08-20T07:30:33;1.40;;;0.93;;
62543;SDS011;48597;49.030;1.822;2023-08-20T07:32:59;2.22;;;0.85;;
62543;SDS011;48597;49.030;1.822;2023-08-20T07:35:25;1.00;;;0.70;;
62543;SDS011;48597;49.030;1.822;2023-08-20T07:37:50;2.28;;;0.90;;
62543;SDS011;48597;49.030;1.822;2023-08-20T07:40:16;1.75;;;0.80;;
62543;SDS011;48597;49.030;1.822;2023-08-20T07:42:42;1.60;;;0.90;;
62543;SDS011;48597;49.030;1.822;2023-08-20T07:45:08;2.50;;;0.73;;
62543;SDS011;48597;49.030;1.822;2023-08-20T07:47:37;2.78;;;0.85;;
62543;SDS011;48597;49.030;1.822;2023-08-20T07:50:04;1.23;;;0.80;;
62543;SDS011;48597;49.030;1.822;2023-08-20T07:52:31;0.88;;;0.70;;
62543;SDS011;48597;49.030;1.822;2023-08-20T07:54:58;1.95;;;0.70;;
62543;SDS011;48597;49.030;1.822;2023-08-20T07:57:24;1.40;;;0.80;;
62543;SDS011;48597;49.030;1.822;2023-08-20T07:59:50;2.08;;;1.00;;
62543;SDS011;48597;49.030;1.822;2023-08-20T08:02:15;2.72;;;0.80;;
62543;SDS011;48597;49.030;1.822;2023-08-20T08:04:41;1.10;;;0.70;;
62543;SDS011;48597;49.030;1.822;2023-08-20T08:07:08;0.77;;;0.60;;
62543;SDS011;48597;49.030;1.822;2023-08-20T08:09:34;0.98;;;0.70;;
62543;SDS011;48597;49.030;1.822;2023-08-20T08:11:59;1.75;;;0.90;;
62543;SDS011;48597;49.030;1.822;2023-08-20T08:14:25;1.20;;;0.70;;
62543;SDS011;48597;49.030;1.822;2023-08-20T08:16:51;2.28;;;0.98;;
62543;SDS011;48597;49.030;1.822;2023-08-20T08:19:16;1.60;;;0.77;;
62543;SDS011;48597;49.030;1.822;2023-08-20T08:21:43;1.50;;;0.73;;
62543;SDS011;48597;49.030;1.822;2023-08-20T08:24:10;1.65;;;0.75;;
62543;SDS011;48597;49.030;1.822;2023-08-20T08:26:36;1.83;;;0.80;;
62543;SDS011;48597;49.030;1.822;2023-08-20T08:29:05;2.30;;;0.82;;
62543;SDS011;48597;49.030;1.822;2023-08-20T08:31:31;2.00;;;0.95;;
62543;SDS011;48597;49.030;1.822;2023-08-20T08:33:57;1.20;;;0.70;;
62543;SDS011;48597;49.030;1.822;2023-08-20T08:36:22;1.88;;;0.63;;
62543;SDS011;48597;49.030;1.822;2023-08-20T08:38:50;1.70;;;0.63;;
62543;SDS011;48597;49.030;1.822;2023-08-20T08:41:15;1.98;;;0.80;;
62543;SDS011;48597;49.030;1.822;2023-08-20T08:43:41;3.22;;;1.00;;
62543;SDS011;48597;49.030;1.822;2023-08-20T08:46:07;3.00;;;0.80;;
62543;SDS011;48597;49.030;1.822;2023-08-20T08:48:36;2.50;;;0.90;;
62543;SDS011;48597;49.030;1.822;2023-08-20T08:51:02;2.00;;;0.90;;
62543;SDS011;48597;49.030;1.822;2023-08-20T08:53:27;4.10;;;0.90;;
62543;SDS011;48597;49.030;1.822;2023-08-20T08:55:57;2.28;;;1.20;;
62543;SDS011;48597;49.030;1.822;2023-08-20T08:58:23;3.42;;;1.33;;
62543;SDS011;48597;49.030;1.822;2023-08-20T09:00:48;6.68;;;1.20;;
62543;SDS011;48597;49.030;1.822;2023-08-20T09:03:14;2.40;;;1.00;;
62543;SDS011;48597;49.030;1.822;2023-08-20T09:05:49;2.30;;;1.00;;
62543;SDS011;48597;49.030;1.822;2023-08-20T09:08:29;5.65;;;1.40;;
62543;SDS011;48597;49.030;1.822;2023-08-20T09:10:55;7.03;;;1.63;;
62543;SDS011;48597;49.030;1.822;2023-08-20T09:13:25;7.82;;;1.52;;
62543;SDS011;48597;49.030;1.822;2023-08-20T09:16:04;6.97;;;1.60;;
62543;SDS011;48597;49.030;1.822;2023-08-20T09:18:38;9.38;;;2.17;;
62543;SDS011;48597;49.030;1.822;2023-08-20T09:23:34;4.85;;;1.85;;
62543;SDS011;48597;49.030;1.822;2023-08-20T09:26:01;8.43;;;1.70;;
62543;SDS011;48597;49.030;1.822;2023-08-20T09:28:28;7.70;;;1.65;;
62543;SDS011;48597;49.030;1.822;2023-08-20T09:30:57;4.10;;;1.58;;
62543;SDS011;48597;49.030;1.822;2023-08-20T09:33:26;7.97;;;1.98;;
62543;SDS011;48597;49.030;1.822;2023-08-20T09:35:52;5.75;;;1.67;;
62543;SDS011;48597;49.030;1.822;2023-08-20T09:38:19;4.78;;;1.73;;
62543;SDS011;48597;49.030;1.822;2023-08-20T09:40:50;8.73;;;1.50;;
62543;SDS011;48597;49.030;1.822;2023-08-20T09:43:17;5.78;;;1.48;;
62543;SDS011;48597;49.030;1.822;2023-08-20T09:45:43;8.07;;;1.83;;
62543;SDS011;48597;49.030;1.822;2023-08-20T09:48:09;9.05;;;1.75;;
62543;SDS011;48597;49.030;1.822;2023-08-20T09:50:36;5.38;;;1.80;;
62543;SDS011;48597;49.030;1.822;2023-08-20T09:53:06;4.60;;;1.70;;
62543;SDS011;48597;49.030;1.822;2023-08-20T09:55:38;3.97;;;1.73;;
62543;SDS011;48597;49.030;1.822;2023-08-20T09:58:05;4.38;;;1.30;;
62543;SDS011;48597;49.030;1.822;2023-08-20T10:00:32;7.68;;;1.70;;
62543;SDS011;48597;49.030;1.822;2023-08-20T10:02:58;6.05;;;1.70;;
62543;SDS011;48597;49.030;1.822;2023-08-20T10:05:24;3.45;;;1.70;;
62543;SDS011;48597;49.030;1.822;2023-08-20T10:07:50;5.75;;;1.90;;
62543;SDS011;48597;49.030;1.822;2023-08-20T10:10:17;4.93;;;1.50;;
62543;SDS011;48597;49.030;1.822;2023-08-20T10:12:43;6.10;;;1.73;;
62543;SDS011;48597;49.030;1.822;2023-08-20T10:15:10;7.00;;;1.75;;
62543;SDS011;48597;49.030;1.822;2023-08-20T10:17:37;4.80;;;1.63;;
62543;SDS011;48597;49.030;1.822;2023-08-20T10:20:04;6.93;;;2.25;;
62543;SDS011;48597;49.030;1.822;2023-08-20T10:22:33;5.57;;;1.73;;
62543;SDS011;48597;49.030;1.822;2023-08-20T10:25:01;5.55;;;1.73;;
62543;SDS011;48597;49.030;1.822;2023-08-20T10:27:31;7.22;;;1.73;;
62543;SDS011;48597;49.030;1.822;2023-08-20T10:29:59;5.40;;;1.67;;
62543;SDS011;48597;49.030;1.822;2023-08-20T10:35:18;4.85;;;1.58;;
62543;SDS011;48597;49.030;1.822;2023-08-20T10:38:03;4.20;;;1.70;;
62543;SDS011;48597;49.030;1.822;2023-08-20T10:46:26;4.25;;;1.58;;
62543;SDS011;48597;49.030;1.822;2023-08-20T10:48:58;3.63;;;1.48;;
62543;SDS011;48597;49.030;1.822;2023-08-20T10:51:26;5.82;;;1.75;;
62543;SDS011;48597;49.030;1.822;2023-08-20T10:59:05;3.95;;;1.60;;
62543;SDS011;48597;49.030;1.822;2023-08-20T11:01:32;6.95;;;1.77;;
62543;SDS011;48597;49.030;1.822;2023-08-20T11:03:57;3.05;;;1.38;;
62543;SDS011;48597;49.030;1.822;2023-08-20T11:06:25;4.07;;;1.60;;
62543;SDS011;48597;49.030;1.822;2023-08-20T11:08:56;3.08;;;1.60;;
62543;SDS011;48597;49.030;1.822;2023-08-20T11:11:22;3.55;;;1.48;;
62543;SDS011;48597;49.030;1.822;2023-08-20T11:13:48;5.70;;;1.65;;
62543;SDS011;48597;49.030;1.822;2023-08-20T11:16:14;6.68;;;2.10;;
62543;SDS011;48597;49.030;1.822;2023-08-20T11:18:39;4.82;;;1.77;;
62543;SDS011;48597;49.030;1.822;2023-08-20T11:21:04;8.73;;;3.03;;
62543;SDS011;48597;49.030;1.822;2023-08-20T11:23:30;12.48;;;4.45;;
62543;SDS011;48597;49.030;1.822;2023-08-20T11:25:56;15.90;;;4.40;;
62543;SDS011;48597;49.030;1.822;2023-08-20T11:28:22;8.18;;;3.30;;
62543;SDS011;48597;49.030;1.822;2023-08-20T11:30:49;8.80;;;3.05;;
62543;SDS011;48597;49.030;1.822;2023-08-20T11:33:16;8.35;;;3.33;;
62543;SDS011;48597;49.030;1.822;2023-08-20T11:35:42;7.18;;;2.33;;
62543;SDS011;48597;49.030;1.822;2023-08-20T11:38:09;6.05;;;2.42;;
62543;SDS011;48597;49.030;1.822;2023-08-20T11:40:35;5.07;;;2.03;;
62543;SDS011;48597;49.030;1.822;2023-08-20T11:43:01;5.47;;;2.20;;
62543;SDS011;48597;49.030;1.822;2023-08-20T11:45:27;4.80;;;1.90;;
62543;SDS011;48597;49.030;1.822;2023-08-20T11:47:55;6.28;;;2.58;;
62543;SDS011;48597;49.030;1.822;2023-08-20T11:50:22;5.88;;;2.13;;
62543;SDS011;48597;49.030;1.822;2023-08-20T11:52:47;8.02;;;2.30;;
62543;SDS011;48597;49.030;1.822;2023-08-20T11:55:12;3.67;;;2.08;;
62543;SDS011;48597;49.030;1.822;2023-08-20T11:57:38;3.95;;;1.95;;
62543;SDS011;48597;49.030;1.822;2023-08-20T12:00:04;9.43;;;2.80;;
62543;SDS011;48597;49.030;1.822;2023-08-20T12:02:40;9.10;;;3.65;;
62543;SDS011;48597;49.030;1.822;2023-08-20T12:05:06;19.05;;;8.23;;
62543;SDS011;48597;49.030;1.822;2023-08-20T12:07:32;16.73;;;7.75;;
62543;SDS011;48597;49.030;1.822;2023-08-20T12:09:57;16.60;;;8.63;;
62543;SDS011;48597;49.030;1.822;2023-08-20T12:12:22;22.48;;;11.10;;
62543;SDS011;48597;49.030;1.822;2023-08-20T12:14:48;18.70;;;10.07;;
62543;SDS011;48597;49.030;1.822;2023-08-20T12:17:17;16.38;;;8.00;;
62543;SDS011;48597;49.030;1.822;2023-08-20T12:19:44;16.88;;;8.73;;
62543;SDS011;48597;49.030;1.822;2023-08-20T12:22:10;13.57;;;7.18;;
62543;SDS011;48597;49.030;1.822;2023-08-20T12:24:35;16.17;;;7.93;;
62543;SDS011;48597;49.030;1.822;2023-08-20T12:27:01;18.90;;;9.65;;
62543;SDS011;48597;49.030;1.822;2023-08-20T12:29:26;16.20;;;9.32;;
62543;SDS011;48597;49.030;1.822;2023-08-20T12:31:51;16.80;;;9.48;;
62543;SDS011;48597;49.030;1.822;2023-08-20T12:34:17;15.63;;;8.35;;
62543;SDS011;48597;49.030;1.822;2023-08-20T12:36:42;14.75;;;7.13;;
62543;SDS011;48597;49.030;1.822;2023-08-20T12:39:08;15.05;;;7.38;;
62543;SDS011;48597;49.030;1.822;2023-08-20T12:41:33;10.57;;;6.30;;
62543;SDS011;48597;49.030;1.822;2023-08-20T12:44:01;11.40;;;5.97;;
62543;SDS011;48597;49.030;1.822;2023-08-20T12:46:27;11.65;;;6.00;;
62543;SDS011;48597;49.030;1.822;2023-08-20T12:48:52;12.60;;;6.25;;
62543;SDS011;48597;49.030;1.822;2023-08-20T12:51:18;10.43;;;5.63;;
62543;SDS011;48597;49.030;1.822;2023-08-20T12:53:43;9.82;;;5.53;;
62543;SDS011;48597;49.030;1.822;2023-08-20T12:56:09;11.85;;;5.40;;
62543;SDS011;48597;49.030;1.822;2023-08-20T12:58:35;10.30;;;5.20;;
62543;SDS011;48597;49.030;1.822;2023-08-20T13:01:00;11.68;;;6.03;;
62543;SDS011;48597;49.030;1.822;2023-08-20T13:03:26;14.40;;;7.30;;
62543;SDS011;48597;49.030;1.822;2023-08-20T13:05:52;14.90;;;7.65;;
62543;SDS011;48597;49.030;1.822;2023-08-20T13:08:18;11.30;;;6.00;;
62543;SDS011;48597;49.030;1.822;2023-08-20T13:10:46;12.88;;;5.80;;
62543;SDS011;48597;49.030;1.822;2023-08-20T13:13:17;10.43;;;4.72;;
62543;SDS011;48597;49.030;1.822;2023-08-20T13:15:46;8.70;;;4.45;;
62543;SDS011;48597;49.030;1.822;2023-08-20T13:18:12;10.43;;;4.93;;
62543;SDS011;48597;49.030;1.822;2023-08-20T13:20:38;9.77;;;5.03;;
62543;SDS011;48597;49.030;1.822;2023-08-20T13:23:04;15.68;;;8.60;;
62543;SDS011;48597;49.030;1.822;2023-08-20T13:25:30;15.90;;;8.45;;
62543;SDS011;48597;49.030;1.822;2023-08-20T13:27:55;13.20;;;7.35;;
62543;SDS011;48597;49.030;1.822;2023-08-20T13:30:20;14.68;;;7.70;;
62543;SDS011;48597;49.030;1.822;2023-08-20T13:32:46;11.75;;;6.40;;
62543;SDS011;48597;49.030;1.822;2023-08-20T13:35:11;13.35;;;5.57;;
62543;SDS011;48597;49.030;1.822;2023-08-20T13:37:37;10.32;;;5.30;;
62543;SDS011;48597;49.030;1.822;2023-08-20T13:40:02;11.15;;;5.30;;
62543;SDS011;48597;49.030;1.822;2023-08-20T13:42:29;13.20;;;5.70;;
62543;SDS011;48597;49.030;1.822;2023-08-20T13:44:54;10.50;;;5.70;;
62543;SDS011;48597;49.030;1.822;2023-08-20T13:47:20;11.43;;;4.95;;
62543;SDS011;48597;49.030;1.822;2023-08-20T13:49:45;14.38;;;5.03;;
62543;SDS011;48597;49.030;1.822;2023-08-20T13:52:10;10.18;;;4.82;;
62543;SDS011;48597;49.030;1.822;2023-08-20T13:54:36;10.50;;;4.95;;
62543;SDS011;48597;49.030;1.822;2023-08-20T13:57:02;9.23;;;4.60;;
62543;SDS011;48597;49.030;1.822;2023-08-20T13:59:28;8.80;;;4.57;;
62543;SDS011;48597;49.030;1.822;2023-08-20T14:01:54;10.50;;;4.88;;
62543;SDS011;48597;49.030;1.822;2023-08-20T14:04:19;9.02;;;4.95;;
62543;SDS011;48597;49.030;1.822;2023-08-20T14:06:45;8.10;;;4.78;;
62543;SDS011;48597;49.030;1.822;2023-08-20T14:09:10;9.02;;;4.70;;
62543;SDS011;48597;49.030;1.822;2023-08-20T14:11:35;13.88;;;6.20;;
62543;SDS011;48597;49.030;1.822;2023-08-20T14:14:01;7.43;;;4.25;;
62543;SDS011;48597;49.030;1.822;2023-08-20T14:16:26;7.97;;;4.47;;
62543;SDS011;48597;49.030;1.822;2023-08-20T14:18:52;7.60;;;4.57;;
62543;SDS011;48597;49.030;1.822;2023-08-20T14:21:17;6.93;;;4.25;;
62543;SDS011;48597;49.030;1.822;2023-08-20T14:23:43;10.60;;;4.32;;
62543;SDS011;48597;49.030;1.822;2023-08-20T14:26:08;9.68;;;4.32;;
62543;SDS011;48597;49.030;1.822;2023-08-20T14:28:34;6.97;;;3.58;;
62543;SDS011;48597;49.030;1.822;2023-08-20T14:31:03;6.90;;;3.95;;
62543;SDS011;48597;49.030;1.822;2023-08-20T14:33:31;5.80;;;3.40;;
62543;SDS011;48597;49.030;1.822;2023-08-20T14:35:57;5.43;;;3.53;;
62543;SDS011;48597;49.030;1.822;2023-08-20T14:38:22;7.43;;;3.42;;
62543;SDS011;48597;49.030;1.822;2023-08-20T14:40:48;5.95;;;3.22;;
62543;SDS011;48597;49.030;1.822;2023-08-20T14:43:14;7.57;;;3.60;;
62543;SDS011;48597;49.030;1.822;2023-08-20T14:45:39;5.82;;;3.00;;
62543;SDS011;48597;49.030;1.822;2023-08-20T14:48:04;5.68;;;3.25;;
62543;SDS011;48597;49.030;1.822;2023-08-20T14:50:30;5.80;;;3.17;;
62543;SDS011;48597;49.030;1.822;2023-08-20T14:52:57;6.47;;;3.10;;
62543;SDS011;48597;49.030;1.822;2023-08-20T14:55:23;4.55;;;2.65;;
62543;SDS011;48597;49.030;1.822;2023-08-20T14:57:48;5.03;;;2.83;;
62543;SDS011;48597;49.030;1.822;2023-08-20T15:00:14;5.40;;;2.78;;
62543;SDS011;48597;49.030;1.822;2023-08-20T15:02:40;5.13;;;3.00;;